createdAt,value
2022-09-11T00:01:14.389Z,14.30
2022-09-11T00:03:45.059Z,13.37
2022-09-11T00:06:27.421Z,13.27
2022-09-11T00:09:00.689Z,14.48
2022-09-11T00:11:30.505Z,16.17
2022-09-11T00:13:59.169Z,16.25
2022-09-11T00:16:28.796Z,15.32
2022-09-11T00:19:00.149Z,14.63
2022-09-11T00:21:29.435Z,15.20
2022-09-11T00:23:58.127Z,16.55
2022-09-11T00:26:26.407Z,18.02
2022-09-11T00:28:55.313Z,16.38
2022-09-11T00:31:25.796Z,17.27
2022-09-11T00:33:53.968Z,34.65
2022-09-11T00:36:24.509Z,13.40
2022-09-11T00:38:52.589Z,16.70
2022-09-11T00:41:22.632Z,17.47
2022-09-11T00:44:00.675Z,16.83
2022-09-11T00:46:35.631Z,12.90
2022-09-11T00:49:07.948Z,12.27
2022-09-11T00:51:41.106Z,19.43
2022-09-11T00:54:13.573Z,16.57
2022-09-11T00:56:44.337Z,23.03
2022-09-11T00:59:13.569Z,16.13
2022-09-11T01:01:42.003Z,20.20
2022-09-11T01:04:10.566Z,15.90
2022-09-11T01:06:40.763Z,15.90
2022-09-11T01:09:08.673Z,22.63
2022-09-11T01:11:54.639Z,16.93
2022-09-11T01:14:34.664Z,28.83
2022-09-11T01:17:15.354Z,18.43
2022-09-11T01:20:05.596Z,19.33
2022-09-11T01:23:03.024Z,20.50
2022-09-11T01:25:45.205Z,23.87
2022-09-11T01:28:17.786Z,29.07
2022-09-11T01:30:51.153Z,26.63
2022-09-11T01:33:28.287Z,25.27
2022-09-11T01:36:03.738Z,26.37
2022-09-11T01:38:37.797Z,27.83
2022-09-11T01:41:09.783Z,26.07
2022-09-11T01:43:43.283Z,34.53
2022-09-11T01:46:17.334Z,28.73
2022-09-11T01:48:51.049Z,33.07
2022-09-11T01:51:24.240Z,29.13
2022-09-11T01:53:54.819Z,29.60
2022-09-11T01:56:28.011Z,29.87
2022-09-11T01:59:01.857Z,29.70
2022-09-11T02:01:34.084Z,30.07
2022-09-11T02:04:07.820Z,30.17
2022-09-11T02:06:40.851Z,27.70
2022-09-11T02:09:12.326Z,27.50
2022-09-11T02:11:42.666Z,23.93
2022-09-11T02:14:21.217Z,32.63
2022-09-11T02:16:51.934Z,32.47
2022-09-11T02:19:21.344Z,27.33
2022-09-11T02:21:51.018Z,30.33
2022-09-11T02:24:20.876Z,30.93
2022-09-11T02:26:52.672Z,27.80
2022-09-11T02:29:22.692Z,29.17
2022-09-11T02:31:52.205Z,30.23
2022-09-11T02:34:27.077Z,27.67
2022-09-11T02:37:09.332Z,28.97
2022-09-11T02:40:01.265Z,24.00
2022-09-11T02:42:39.537Z,23.83
2022-09-11T02:45:20.044Z,26.93
2022-09-11T02:47:59.107Z,28.90
2022-09-11T02:50:35.201Z,29.80
2022-09-11T02:53:08.498Z,32.90
2022-09-11T02:55:50.942Z,31.23
2022-09-11T02:58:26.897Z,40.33
2022-09-11T03:00:58.820Z,34.37
2022-09-11T03:03:26.913Z,45.47
2022-09-11T03:05:55.076Z,47.00
2022-09-11T03:08:22.924Z,46.33
2022-09-11T03:10:50.789Z,46.13
2022-09-11T03:13:18.556Z,45.97
2022-09-11T03:15:46.580Z,71.03
2022-09-11T03:18:15.856Z,46.97
2022-09-11T03:20:47.019Z,75.37
2022-09-11T03:23:15.095Z,42.30
2022-09-11T03:25:42.888Z,41.67
2022-09-11T03:28:10.756Z,53.23
2022-09-11T03:30:38.615Z,47.23
2022-09-11T03:33:06.468Z,57.77
2022-09-11T03:35:36.509Z,51.40
2022-09-11T03:38:04.310Z,42.60
2022-09-11T03:40:32.104Z,53.77
2022-09-11T03:43:00.028Z,45.57
2022-09-11T03:45:27.994Z,48.17
2022-09-11T03:47:55.819Z,45.27
2022-09-11T03:50:23.851Z,45.27
2022-09-11T03:52:53.262Z,50.17
2022-09-11T03:55:23.076Z,75.10
2022-09-11T03:57:51.166Z,50.97
2022-09-11T04:00:19.115Z,43.50
2022-09-11T04:02:46.873Z,63.60
2022-09-11T04:05:14.861Z,62.23
2022-09-11T04:07:42.647Z,48.07
2022-09-11T04:10:12.333Z,52.40
2022-09-11T04:12:40.143Z,42.83
2022-09-11T04:15:08.906Z,42.83
2022-09-11T04:17:37.058Z,54.37
2022-09-11T04:20:05.294Z,43.30
2022-09-11T04:22:33.082Z,52.30
2022-09-11T04:25:02.281Z,46.03
2022-09-11T04:27:32.035Z,46.87
2022-09-11T04:29:59.940Z,55.73
2022-09-11T04:32:28.381Z,47.70
2022-09-11T04:34:56.377Z,38.60
2022-09-11T04:37:24.134Z,38.23
2022-09-11T04:39:51.904Z,39.00
2022-09-11T04:42:19.817Z,40.43
2022-09-11T04:44:49.047Z,43.63
2022-09-11T04:47:17.261Z,41.43
2022-09-11T04:49:46.825Z,39.70
2022-09-11T04:52:15.263Z,41.40
2022-09-11T04:54:43.306Z,42.33
2022-09-11T04:57:11.008Z,48.73
2022-09-11T04:59:38.997Z,44.73
2022-09-11T05:02:08.456Z,36.07
2022-09-11T05:04:36.473Z,42.03
2022-09-11T05:07:04.674Z,39.77
2022-09-11T05:09:32.895Z,41.67
2022-09-11T05:12:02.150Z,41.03
2022-09-11T05:14:30.101Z,44.23
2022-09-11T05:16:57.894Z,42.10
2022-09-11T05:19:27.154Z,40.30
2022-09-11T05:21:55.046Z,39.53
2022-09-11T05:24:22.815Z,43.37
2022-09-11T05:26:50.583Z,50.83
2022-09-11T05:29:19.655Z,61.20
2022-09-11T05:31:47.707Z,72.10
2022-09-11T05:34:15.557Z,63.90
2022-09-11T05:36:46.052Z,54.47
2022-09-11T05:39:13.859Z,59.30
2022-09-11T05:41:41.728Z,52.43
2022-09-11T05:44:09.456Z,52.80
2022-09-11T05:46:37.561Z,53.27
2022-09-11T05:49:05.662Z,55.00
2022-09-11T05:51:35.799Z,48.33
2022-09-11T05:54:05.461Z,53.70
2022-09-11T05:56:33.228Z,58.30
2022-09-11T05:59:02.337Z,59.10
2022-09-11T06:01:31.124Z,58.53
2022-09-11T06:03:59.218Z,60.03
2022-09-11T06:06:27.642Z,66.60
2022-09-11T06:08:55.985Z,63.73
2022-09-11T06:11:25.203Z,74.00
2022-09-11T06:13:53.143Z,66.97
2022-09-11T06:16:23.521Z,76.00
2022-09-11T06:18:53.215Z,84.60
2022-09-11T06:21:22.477Z,99.70
2022-09-11T06:23:51.984Z,95.10
2022-09-11T06:26:22.449Z,90.10
2022-09-11T06:28:52.776Z,93.10
2022-09-11T06:31:22.505Z,108.50
2022-09-11T06:33:51.068Z,96.10
2022-09-11T06:36:20.273Z,105.77
2022-09-11T06:38:53.277Z,113.17
2022-09-11T06:41:21.007Z,112.07
2022-09-11T06:43:49.269Z,111.13
2022-09-11T06:46:20.031Z,126.40
2022-09-11T06:48:49.653Z,140.67
2022-09-11T06:51:19.439Z,117.63
2022-09-11T06:53:48.642Z,113.63
2022-09-11T06:56:18.853Z,115.90
2022-09-11T06:58:47.086Z,101.87
2022-09-11T07:01:16.567Z,78.83
2022-09-11T07:03:47.373Z,78.40
2022-09-11T07:06:16.562Z,70.83
2022-09-11T07:08:44.679Z,75.37
2022-09-11T07:11:13.278Z,70.50
2022-09-11T07:13:42.068Z,64.37
2022-09-11T07:16:12.691Z,58.10
2022-09-11T07:18:42.266Z,48.33
2022-09-11T07:21:14.066Z,46.23
2022-09-11T07:23:43.039Z,50.70
2022-09-11T07:26:13.679Z,52.00
2022-09-11T07:28:41.899Z,47.20
2022-09-11T07:31:11.692Z,47.33
2022-09-11T07:33:40.071Z,48.90
2022-09-11T07:36:12.137Z,55.20
2022-09-11T07:38:42.759Z,48.80
2022-09-11T07:41:11.706Z,51.03
2022-09-11T07:43:40.796Z,49.55
2022-09-11T07:46:11.350Z,48.40
2022-09-11T07:48:40.852Z,56.03
2022-09-11T07:51:11.572Z,52.10
2022-09-11T07:53:42.723Z,49.70
2022-09-11T07:56:13.055Z,52.90
2022-09-11T07:58:42.738Z,60.40
2022-09-11T08:01:12.715Z,86.07
2022-09-11T08:03:40.626Z,119.13
2022-09-11T08:06:10.705Z,74.87
2022-09-11T08:08:38.641Z,51.20
2022-09-11T08:11:10.602Z,45.47
2022-09-11T08:13:39.031Z,51.13
2022-09-11T08:16:08.057Z,53.30
2022-09-11T08:18:37.190Z,76.17
2022-09-11T08:21:12.574Z,76.43
2022-09-11T08:23:42.700Z,81.35
2022-09-11T08:26:14.245Z,105.33
2022-09-11T08:28:46.893Z,92.97
2022-09-11T08:31:14.994Z,60.03
2022-09-11T08:33:42.984Z,60.10
2022-09-11T08:36:14.673Z,54.43
2022-09-11T08:38:42.905Z,48.47
2022-09-11T08:41:22.311Z,53.05
2022-09-11T08:43:56.725Z,49.33
2022-09-11T08:46:27.951Z,46.08
2022-09-11T08:49:03.531Z,49.33
2022-09-11T08:51:32.348Z,49.83
2022-09-11T08:54:02.415Z,47.33
2022-09-11T08:56:33.709Z,44.40
2022-09-11T08:59:20.321Z,42.60
2022-09-11T09:02:00.692Z,46.03
2022-09-11T09:04:42.052Z,45.17
2022-09-11T09:07:20.108Z,52.13
2022-09-11T09:10:00.607Z,50.50
2022-09-11T09:12:39.846Z,48.87
2022-09-11T09:15:20.323Z,51.88
2022-09-11T09:17:53.885Z,64.40
2022-09-11T09:20:27.171Z,66.57
2022-09-11T09:23:00.174Z,50.73
2022-09-11T09:25:28.869Z,46.37
2022-09-11T09:28:04.863Z,54.33
2022-09-11T09:30:41.856Z,56.73
2022-09-11T09:33:25.882Z,54.53
2022-09-11T09:35:54.389Z,52.13
2022-09-11T09:38:26.851Z,53.50
2022-09-11T09:41:05.234Z,55.97
2022-09-11T09:43:48.330Z,48.67
2022-09-11T09:46:24.989Z,48.63
2022-09-11T09:48:53.000Z,52.78
2022-09-11T09:51:20.747Z,46.83
2022-09-11T09:53:53.046Z,56.38
2022-09-11T09:56:23.751Z,49.03
2022-09-11T09:59:01.131Z,48.53
2022-09-11T10:01:45.406Z,51.20
2022-09-11T10:04:17.245Z,52.00
2022-09-11T10:06:46.564Z,75.53
2022-09-11T10:09:24.568Z,71.93
2022-09-11T10:11:55.934Z,70.87
2022-09-11T10:14:49.770Z,70.67
2022-09-11T10:17:21.325Z,63.33
2022-09-11T10:19:49.200Z,61.40
2022-09-11T10:22:29.074Z,68.97
2022-09-11T10:25:12.449Z,68.82
2022-09-11T10:27:46.375Z,69.97
2022-09-11T10:30:36.420Z,62.45
2022-09-11T10:33:08.205Z,59.90
2022-09-11T10:35:37.855Z,59.72
2022-09-11T10:38:18.936Z,61.03
2022-09-11T10:41:15.935Z,66.05
2022-09-11T10:43:48.688Z,62.67
2022-09-11T10:46:26.381Z,71.07
2022-09-11T10:48:58.391Z,75.10
2022-09-11T10:51:27.713Z,71.28
2022-09-11T10:54:05.642Z,77.72
2022-09-11T10:56:39.334Z,70.60
2022-09-11T10:59:18.036Z,69.30
2022-09-11T11:01:47.396Z,71.85
2022-09-11T11:04:15.251Z,67.95
2022-09-11T11:06:59.653Z,64.40
2022-09-11T11:09:39.899Z,66.43
2022-09-11T11:12:21.737Z,65.13
2022-09-11T11:15:20.174Z,63.47
2022-09-11T11:17:58.757Z,67.97
2022-09-11T11:20:35.507Z,66.60
2022-09-11T11:23:25.451Z,70.78
2022-09-11T11:26:05.567Z,72.22
2022-09-11T11:29:03.197Z,63.95
2022-09-11T11:31:52.667Z,61.63
2022-09-11T11:34:39.914Z,56.17
2022-09-11T11:37:13.266Z,60.15
2022-09-11T11:39:49.193Z,55.38
2022-09-11T11:42:24.420Z,50.85
2022-09-11T11:44:55.333Z,54.47
2022-09-11T11:47:30.021Z,51.63
2022-09-11T11:50:07.182Z,52.78
2022-09-11T11:52:46.271Z,48.67
2022-09-11T11:55:22.455Z,47.72
2022-09-11T11:57:58.745Z,46.20
2022-09-11T12:00:30.011Z,39.25
2022-09-11T12:03:03.365Z,37.17
2022-09-11T12:05:35.050Z,35.95
2022-09-11T12:08:03.612Z,37.20
2022-09-11T12:10:34.685Z,40.38
2022-09-11T12:13:06.767Z,39.42
2022-09-11T12:15:35.931Z,37.83
2022-09-11T12:18:05.543Z,37.70
2022-09-11T12:20:40.665Z,37.58
2022-09-11T12:23:35.953Z,40.10
2022-09-11T12:26:22.217Z,39.80
2022-09-11T12:28:50.728Z,40.90
2022-09-11T12:31:19.469Z,35.75
2022-09-11T12:33:55.595Z,37.80
2022-09-11T12:36:49.658Z,36.03
2022-09-11T12:39:25.446Z,35.92
2022-09-11T12:41:53.421Z,39.05
2022-09-11T12:44:32.654Z,38.72
2022-09-11T12:47:16.832Z,37.63
2022-09-11T12:49:54.760Z,34.65
2022-09-11T12:52:35.904Z,33.58
2022-09-11T12:55:22.735Z,35.30
2022-09-11T12:57:52.252Z,39.30
2022-09-11T13:00:24.532Z,31.48
2022-09-11T13:02:56.946Z,32.40
2022-09-11T13:05:28.344Z,33.35
2022-09-11T13:08:00.892Z,33.65
2022-09-11T13:10:36.368Z,32.83
2022-09-11T13:13:06.492Z,35.63
2022-09-11T13:15:40.981Z,31.05
2022-09-11T13:18:32.258Z,28.13
2022-09-11T13:21:02.518Z,25.77
2022-09-11T13:23:32.815Z,28.15
2022-09-11T13:26:02.861Z,27.48
2022-09-11T13:28:32.136Z,24.90
2022-09-11T13:31:05.091Z,28.50
2022-09-11T13:33:33.803Z,30.10
2022-09-11T13:36:06.113Z,28.00
2022-09-11T13:38:37.416Z,26.58
2022-09-11T13:41:09.072Z,28.63
2022-09-11T13:43:40.128Z,23.50
2022-09-11T13:46:26.860Z,27.17
2022-09-11T13:48:59.267Z,24.52
2022-09-11T13:51:31.265Z,28.27
2022-09-11T13:54:10.197Z,25.85
2022-09-11T13:59:47.633Z,24.13
2022-09-11T14:02:49.480Z,23.90
2022-09-11T14:05:21.978Z,19.65
2022-09-11T14:07:59.969Z,22.00
2022-09-11T14:10:32.533Z,17.52
2022-09-11T14:13:06.501Z,17.02
2022-09-11T14:15:41.048Z,18.15
2022-09-11T14:18:15.140Z,16.98
2022-09-11T14:20:45.919Z,17.67
2022-09-11T14:23:21.144Z,15.95
2022-09-11T14:26:12.617Z,16.42
2022-09-11T14:28:50.436Z,14.85
2022-09-11T14:31:30.286Z,19.00
2022-09-11T14:34:12.680Z,14.30
2022-09-11T14:36:44.171Z,13.95
2022-09-11T14:39:16.702Z,13.32
2022-09-11T14:41:46.623Z,11.85
2022-09-11T14:44:15.724Z,13.13
2022-09-11T14:46:43.985Z,9.13
2022-09-11T14:49:12.934Z,13.20
2022-09-11T14:51:42.399Z,13.48
2022-09-11T14:54:15.877Z,11.20
2022-09-11T14:56:46.604Z,9.68
2022-09-11T14:59:14.417Z,10.77
2022-09-11T15:01:42.864Z,13.80
2022-09-11T15:04:17.030Z,10.35
2022-09-11T15:06:44.957Z,9.00
2022-09-11T15:09:12.751Z,10.05
2022-09-11T15:11:41.632Z,9.07
2022-09-11T15:14:23.359Z,10.50
2022-09-11T15:17:02.025Z,10.50
2022-09-11T15:19:30.836Z,10.02
2022-09-11T15:21:59.117Z,10.27
2022-09-11T15:24:27.366Z,8.73
2022-09-11T15:26:55.474Z,12.18
2022-09-11T15:29:30.760Z,14.63
2022-09-11T15:32:01.267Z,9.45
2022-09-11T15:34:33.207Z,10.63
2022-09-11T15:37:01.201Z,10.00
2022-09-11T15:39:29.302Z,8.43
2022-09-11T15:41:57.851Z,8.52
2022-09-11T15:44:28.706Z,8.25
2022-09-11T15:46:58.626Z,8.40
2022-09-11T15:49:28.981Z,9.38
2022-09-11T15:51:58.367Z,6.72
2022-09-11T15:54:26.775Z,7.47
2022-09-11T15:56:54.736Z,7.05
2022-09-11T15:59:22.683Z,8.20
2022-09-11T16:01:51.985Z,7.38
2022-09-11T16:04:22.888Z,7.47
2022-09-11T16:06:52.135Z,7.63
2022-09-11T16:09:21.961Z,8.15
2022-09-11T16:11:50.371Z,7.93
2022-09-11T16:14:19.024Z,7.60
2022-09-11T16:16:48.093Z,8.77
2022-09-11T16:19:18.557Z,7.15
2022-09-11T16:21:46.659Z,6.75
2022-09-11T16:24:15.500Z,6.82
2022-09-11T16:26:44.162Z,6.78
2022-09-11T16:29:14.692Z,6.95
2022-09-11T16:31:43.628Z,9.32
2022-09-11T16:34:12.101Z,7.97
2022-09-11T16:36:42.574Z,10.77
2022-09-11T16:39:12.983Z,8.20
2022-09-11T16:41:41.247Z,7.28
2022-09-11T16:44:11.987Z,9.07
2022-09-11T16:46:40.792Z,12.30
2022-09-11T16:49:09.010Z,7.53
2022-09-11T16:51:37.295Z,9.18
2022-09-11T16:54:07.809Z,9.55
2022-09-11T16:56:35.683Z,8.43
2022-09-11T16:59:03.618Z,8.63
2022-09-11T17:01:31.749Z,9.60
2022-09-11T17:03:59.591Z,11.77
2022-09-11T17:06:30.184Z,7.55
2022-09-11T17:09:00.258Z,10.13
2022-09-11T17:11:31.452Z,9.93
2022-09-11T17:14:01.876Z,9.50
2022-09-11T17:16:32.257Z,12.57
2022-09-11T17:19:01.717Z,9.93
2022-09-11T17:21:35.729Z,9.75
2022-09-11T17:24:05.153Z,9.27
2022-09-11T17:26:35.637Z,9.05
2022-09-11T17:29:04.710Z,9.77
2022-09-11T17:31:32.956Z,7.07
2022-09-11T17:34:01.095Z,7.97
2022-09-11T17:36:29.284Z,9.15
2022-09-11T17:38:59.458Z,6.30
2022-09-11T17:41:27.274Z,7.22
2022-09-11T17:43:56.716Z,7.50
2022-09-11T17:46:25.535Z,8.68
2022-09-11T17:48:53.420Z,9.65
2022-09-11T17:51:24.655Z,8.27
2022-09-11T17:53:55.387Z,12.88
2022-09-11T17:56:25.856Z,10.18
2022-09-11T17:58:56.723Z,10.60
2022-09-11T18:01:26.043Z,12.75
2022-09-11T18:03:54.868Z,9.80
2022-09-11T18:06:27.843Z,23.92
2022-09-11T18:08:56.707Z,9.45
2022-09-11T18:11:24.706Z,10.27
2022-09-11T18:13:53.051Z,9.68
2022-09-11T18:16:22.451Z,8.18
2022-09-11T18:18:50.426Z,11.63
2022-09-11T18:21:18.214Z,8.77
2022-09-11T18:23:46.588Z,8.98
2022-09-11T18:26:22.006Z,10.30
2022-09-11T18:28:49.989Z,12.02
2022-09-11T18:31:18.310Z,11.55
2022-09-11T18:33:54.596Z,8.70
2022-09-11T18:36:23.505Z,9.38
2022-09-11T18:38:51.735Z,12.23
2022-09-11T18:41:20.188Z,9.18
2022-09-11T18:43:47.997Z,10.98
2022-09-11T18:46:16.388Z,9.30
2022-09-11T18:48:45.054Z,9.23
2022-09-11T18:51:15.296Z,9.38
2022-09-11T18:53:43.929Z,11.23
2022-09-11T18:56:12.485Z,9.82
2022-09-11T18:58:41.832Z,11.65
2022-09-11T19:01:11.522Z,9.27
2022-09-11T19:03:41.783Z,10.80
2022-09-11T19:06:12.110Z,8.48
2022-09-11T19:08:43.388Z,9.45
2022-09-11T19:11:13.330Z,11.68
2022-09-11T19:13:42.242Z,13.48
2022-09-11T19:16:10.936Z,13.63
2022-09-11T19:18:40.130Z,12.57
2022-09-11T19:21:10.278Z,12.65
2022-09-11T19:23:40.220Z,11.73
2022-09-11T19:26:12.192Z,14.88
2022-09-11T19:28:42.193Z,11.48
2022-09-11T19:31:12.122Z,13.98
2022-09-11T19:33:40.663Z,14.30
2022-09-11T19:36:12.356Z,10.88
2022-09-11T19:38:42.010Z,12.00
2022-09-11T19:41:14.091Z,12.32
2022-09-11T19:43:43.154Z,11.27
2022-09-11T19:46:12.946Z,10.63
2022-09-11T19:48:41.562Z,14.30
2022-09-11T19:51:10.761Z,16.38
2022-09-11T19:53:39.199Z,13.68
2022-09-11T19:56:07.425Z,13.93
2022-09-11T19:58:38.780Z,14.88
2022-09-11T20:01:08.980Z,16.50
2022-09-11T20:03:38.499Z,15.55
2022-09-11T20:06:06.817Z,13.40
2022-09-11T20:08:36.097Z,18.90
2022-09-11T20:11:06.364Z,14.93
2022-09-11T20:13:36.909Z,15.48
2022-09-11T20:16:05.677Z,14.65
2022-09-11T20:18:33.635Z,16.15
2022-09-11T20:21:03.063Z,20.65
2022-09-11T20:23:30.827Z,15.75
2022-09-11T20:26:08.378Z,15.45
2022-09-11T20:28:37.688Z,12.65
2022-09-11T20:31:13.725Z,20.20
2022-09-11T20:33:41.877Z,20.45
2022-09-11T20:36:10.161Z,18.05
2022-09-11T20:38:37.897Z,20.38
2022-09-11T20:41:07.807Z,16.50
2022-09-11T20:43:37.071Z,14.50
2022-09-11T20:46:05.782Z,15.50
2022-09-11T20:48:33.972Z,15.77
2022-09-11T20:51:06.560Z,18.13
2022-09-11T20:53:34.324Z,16.58
2022-09-11T20:56:03.416Z,20.45
2022-09-11T20:58:31.223Z,17.02
2022-09-11T21:01:00.871Z,16.92
2022-09-11T21:03:29.645Z,22.50
2022-09-11T21:05:57.543Z,18.20
2022-09-11T21:08:26.380Z,16.73
2022-09-11T21:10:54.163Z,18.55
2022-09-11T21:13:21.946Z,18.50
2022-09-11T21:15:49.689Z,17.75
2022-09-11T21:18:18.773Z,19.17
2022-09-11T21:20:54.084Z,17.95
2022-09-11T21:23:21.927Z,20.60
2022-09-11T21:25:52.656Z,16.90
2022-09-11T21:28:21.100Z,15.70
2022-09-11T21:30:49.137Z,17.83
2022-09-11T21:33:18.855Z,22.17
2022-09-11T21:35:52.368Z,22.23
2022-09-11T21:38:20.903Z,18.80
2022-09-11T21:40:48.826Z,21.08
2022-09-11T21:43:16.675Z,18.27
2022-09-11T21:45:44.429Z,17.58
2022-09-11T21:48:14.745Z,21.67
2022-09-11T21:50:44.184Z,23.43
2022-09-11T21:53:12.797Z,20.27
2022-09-11T21:55:41.024Z,18.10
2022-09-11T21:58:09.183Z,21.57
2022-09-11T22:00:42.777Z,21.37
2022-09-11T22:03:12.571Z,20.13
2022-09-11T22:05:43.394Z,20.20
2022-09-11T22:08:13.781Z,21.93
2022-09-11T22:10:42.977Z,23.93
2022-09-11T22:13:13.827Z,20.23
2022-09-11T22:15:41.853Z,18.93
2022-09-11T22:18:09.952Z,22.13
2022-09-11T22:20:38.512Z,19.80
2022-09-11T22:23:06.949Z,17.93
2022-09-11T22:25:36.901Z,19.97
2022-09-11T22:28:04.855Z,20.53
2022-09-11T22:30:33.446Z,18.83
2022-09-11T22:33:01.458Z,19.60
2022-09-11T22:35:29.754Z,20.50
2022-09-11T22:37:57.431Z,23.43
2022-09-11T22:40:25.208Z,21.97
2022-09-11T22:42:54.349Z,19.93
2022-09-11T22:45:22.153Z,22.60
2022-09-11T22:47:49.948Z,19.63
2022-09-11T22:50:17.938Z,20.57
2022-09-11T22:52:45.767Z,26.37
2022-09-11T22:55:13.468Z,18.63
2022-09-11T22:57:41.311Z,20.67
2022-09-11T23:00:14.392Z,20.20
2022-09-11T23:02:42.518Z,23.30
2022-09-11T23:05:28.348Z,17.93
2022-09-11T23:07:56.028Z,22.33
2022-09-11T23:10:25.043Z,20.73
2022-09-11T23:12:53.550Z,21.60
2022-09-11T23:15:22.913Z,29.20
2022-09-11T23:17:50.609Z,21.17
2022-09-11T23:20:19.127Z,22.30
2022-09-11T23:22:46.890Z,24.13
2022-09-11T23:25:14.840Z,21.93
2022-09-11T23:27:45.335Z,25.47
2022-09-11T23:30:13.541Z,21.63
2022-09-11T23:32:42.629Z,29.83
2022-09-11T23:35:10.780Z,21.57
2022-09-11T23:37:43.524Z,25.93
2022-09-11T23:40:13.168Z,21.47
2022-09-11T23:42:40.976Z,25.20
2022-09-11T23:45:13.522Z,25.50
2022-09-11T23:47:42.637Z,23.23
2022-09-11T23:50:10.718Z,23.07
2022-09-11T23:52:39.511Z,26.30
2022-09-11T23:55:08.350Z,22.03
2022-09-11T23:57:36.168Z,21.97
